Dundee, Texas
Current Conditions -  °F | °C
As of 4:35 AM on Wednesday 22 Oct 2014 (Local Time) from KCWC Reporting Station
Clear Clear  
Wind Chill: 58°   Ceiling: Unl
Heat Index: 58°   Visibility: 10mi
Dew Point: 54°   Wind: 6mph
Humidity: 85%   Direction: 140°SE
Pressure: 30.07"   Gusts: NA
Location:  33.6107°N, 98.6955°W
Report Text: KCWC 220935Z AUTO 14005KT 10SM CLR 15/12 A3007 RMK AO2 T01450120
Loading
Personal Weather Stations






























Interactive Weather Map New forecast layout! Learn more

10-Day Weather Forecast

Advertisements
Track Severe Weather on mobile